Jewel Of The Seas — C6FW9 — position and weather

sailwx.info

Track history (hours):
 
Tides and Currents Weather Stations Pressure Air Temp Water Temp Dewpoint Dewpoint Depression Visibility Wind Speed Wind Dir Waves Ship Positions

Jewel Of The Seas

Operator: Royal Caribbean Cruises Ltd

Last reported at 2019-Jun-16 00:30 UTC. Time now 2019-Jun-16 00:56 UTC.
Position N 42°26' E 010°30'.

Length 290 m; draft 8.6 m.

Type: Passenger vessel. MMSI: 311583000.

Date/timePositionNaut miles runAvg speedWind from/ knotsBaromVisibWave heightAir tempDewpointWater temp
2019-Jun-16 00:30N 42°26' E 010°30'1020.2
2019-Jun-16 00:00N 42°33' E 010°20'2020.1
2019-Jun-15 23:01N 42°44' E 009°58'020.6
2019-Jun-15 23:00N 42°44' E 009°58'91344.7
2019-Jun-15 23:00N 42°36' E 010°00'1735.5 010 / 131018.610.8 21.0 20.0
2019-Jun-15 22:30N 42°50' E 009°46'1019.2
2019-Jun-15 22:00N 42°57' E 009°37'1019.6
2019-Jun-15 21:30N 43°06' E 009°32'918.5
2019-Jun-15 21:00N 43°10' E 009°21'1019.1
2019-Jun-15 20:30N 43°13' E 009°08'1019.4
2019-Jun-15 20:00N 43°17' E 008°56'1019.4
2019-Jun-15 19:30N 43°20' E 008°44'1019.8
2019-Jun-15 19:00N 43°23' E 008°30'1020.0
2019-Jun-15 18:30N 43°25' E 008°17'1019.4
2019-Jun-15 18:00N 43°28' E 008°04'919.0
2019-Jun-15 17:30N 43°31' E 007°52'1019.5
2019-Jun-15 17:01N 43°34' E 007°39'1019.7
2019-Jun-15 16:30N 43°38' E 007°26'612.6
2019-Jun-15 16:00N 43°41' E 007°19'1 1.4
2019-Jun-15 15:29N 43°41' E 007°19'0 0.1
2019-Jun-15 14:59N 43°41' E 007°19'0 0.1
2019-Jun-15 14:29N 43°41' E 007°19'0 0.1
2019-Jun-15 13:59N 43°41' E 007°19'0 0.1
2019-Jun-15 13:29N 43°41' E 007°19'0 0.0
2019-Jun-15 12:59N 43°41' E 007°19'0 0.1
2019-Jun-15 12:29N 43°41' E 007°19'0 0.0
2019-Jun-15 11:59N 43°41' E 007°19'0 0.0
2019-Jun-15 11:29N 43°41' E 007°19'0 0.0
2019-Jun-15 10:59N 43°41' E 007°19'0 0.0
2019-Jun-15 10:29N 43°41' E 007°19'0 0.0
2019-Jun-15 09:59N 43°41' E 007°19'0 0.1
2019-Jun-15 09:26N 43°41' E 007°19'0 0.0
2019-Jun-15 08:59N 43°41' E 007°19'0 0.0
2019-Jun-15 08:29N 43°41' E 007°19'0 0.0
2019-Jun-15 07:59N 43°41' E 007°19'0 0.0
2019-Jun-15 07:26N 43°41' E 007°19'0 0.0
2019-Jun-15 06:59N 43°41' E 007°19'0 0.0
2019-Jun-15 06:29N 43°41' E 007°19'0 0.0
2019-Jun-15 05:59N 43°41' E 007°19'0 0.0
2019-Jun-15 05:29N 43°41' E 007°19'0 0.0
2019-Jun-15 04:56N 43°41' E 007°19'0 0.2
2019-Jun-15 04:30N 43°41' E 007°19'3 6.1
2019-Jun-15 04:00N 43°38' E 007°18'714.9
2019-Jun-15 03:30N 43°31' E 007°16'713.6
2019-Jun-15 03:00N 43°24' E 007°15'612.5
2019-Jun-15 02:31N 43°18' E 007°13'611.9
2019-Jun-15 02:00N 43°13' E 007°09'611.9
2019-Jun-15 01:31N 43°07' E 007°05'611.6
2019-Jun-15 01:01N 43°02' E 007°01'611.5
2019-Jun-15 00:27N 42°57' E 006°57'715.2
2019-Jun-15 00:00N 42°54' E 006°48'240.9 220 / 151017.6 5.4 19.0 20.0
2019-Jun-14 23:57N 42°56' E 006°49'7411.0
2019-Jun-14 17:12N 43°12' E 005°10'312.6
2019-Jun-14 17:00N 43°12' E 005°06'394.9 160 / 411007.5 21.516.319.0
2019-Jun-14 16:57N 43°15' E 005°09'510.9
2019-Jun-14 16:29N 43°19' E 005°14'5 0.4
2019-Jun-14 05:36N 43°21' E 005°19'0 1.6
2019-Jun-14 05:29N 43°21' E 005°19'4 7.4
2019-Jun-14 05:00N 43°19' E 005°15'612.8
2019-Jun-14 04:30N 43°13' E 005°11'5813.9
2019-Jun-14 00:19N 42°34' E 006°09'515.8
2019-Jun-14 00:00N 42°31' E 006°15'7864.2
2019-Jun-14 00:00N 42°30' E 006°06'1428.7 070 / 191015.627.0 20.0 20.0
2019-Jun-13 23:30N 42°28' E 006°25'815.8
2019-Jun-13 23:00N 42°25' E 006°35'816.0
2019-Jun-13 22:30N 42°21' E 006°44'816.1
2019-Jun-13 22:00N 42°18' E 006°54'816.0
2019-Jun-13 21:30N 42°15' E 007°04'816.1
2019-Jun-13 21:00N 42°11' E 007°14'816.1
2019-Jun-13 20:31N 42°08' E 007°24'816.2
2019-Jun-13 20:00N 42°04' E 007°34'816.1
2019-Jun-13 19:30N 42°01' E 007°43'815.8
2019-Jun-13 19:00N 41°58' E 007°53'815.8
2019-Jun-13 18:30N 41°54' E 008°03'815.8
2019-Jun-13 18:00N 41°51' E 008°12'815.8
2019-Jun-13 17:31N 41°48' E 008°22'714.8
2019-Jun-13 17:00N 41°48' E 008°32'816.0
2019-Jun-13 16:31N 41°52' E 008°41'4 0.4
2019-Jun-13 05:06N 41°55' E 008°45'2 6.8
2019-Jun-13 04:49N 41°53' E 008°45'411.8
2019-Jun-13 04:30N 41°51' E 008°41'612.6
2019-Jun-13 04:00N 41°46' E 008°36'713.0
2019-Jun-13 03:30N 41°39' E 008°37'713.4
2019-Jun-13 03:00N 41°33' E 008°40'713.2
2019-Jun-13 02:30N 41°27' E 008°44'713.1
2019-Jun-13 02:00N 41°21' E 008°49'713.4
2019-Jun-13 01:30N 41°17' E 008°56'713.3
2019-Jun-13 01:00N 41°17' E 009°05'9585.4
2019-Jun-13 01:00N 41°12' E 008°54'9714.7 300 / 121015.627.0 19.0 21.0
2019-Jun-12 18:23N 41°51' E 010°53'513.7
2019-Jun-12 18:00N 41°53' E 010°60'1513.8
2019-Jun-12 16:53N 41°59' E 011°19'1314.3
2019-Jun-12 16:00N 42°00' E 011°36'14 0.9 320 / 201014.610.8 23.117.222.5
2019-Jun-12 01:14N 41°51' E 011°50'2017.7
2019-Jun-12 00:05N 41°33' E 012°04'10106.4
2019-Jun-12 00:00N 41°24' E 012°06'411.1 070 / 161012.510.8 22.0 22.0
2019-Jun-11 23:36N 41°27' E 012°11'717.7
2019-Jun-11 23:12N 41°21' E 012°16'317.9
2019-Jun-11 23:00N 41°18' E 012°19'1217.9
2019-Jun-11 22:20N 41°09' E 012°29'717.9
2019-Jun-11 21:56N 41°03' E 012°35'1717.9
2019-Jun-11 20:59N 40°50' E 012°49'918.1
2019-Jun-11 20:30N 40°44' E 012°57'918.1
2019-Jun-11 20:00N 40°37' E 013°05'918.2
2019-Jun-11 19:30N 40°31' E 013°14'918.1
2019-Jun-11 19:00N 40°25' E 013°22'917.9
2019-Jun-11 18:31N 40°18' E 013°30'918.1
2019-Jun-11 18:01N 40°12' E 013°39'2127.3
2019-Jun-11 18:00N 40°12' E 013°36'1122.6 140 / 181012.6 5.4 25.021.624.4
2019-Jun-11 17:31N 40°05' E 013°47'918.2
2019-Jun-11 17:01N 39°59' E 013°55'918.3
2019-Jun-11 16:31N 39°52' E 014°04'1218.1
2019-Jun-11 15:52N 39°44' E 014°14'718.3
2019-Jun-11 15:30N 39°39' E 014°20'5518.1
2019-Jun-11 12:29N 38°60' E 015°10'918.2
2019-Jun-11 12:01N 38°54' E 015°17'917.8
2019-Jun-11 11:31N 38°46' E 015°24'918.0
2019-Jun-11 11:01N 38°38' E 015°29'918.0
2019-Jun-11 10:30N 38°30' E 015°35'918.3
2019-Jun-11 10:01N 38°22' E 015°40'814.6
2019-Jun-11 09:28N 38°15' E 015°39'715.3
2019-Jun-11 09:01N 38°08' E 015°36'918.1
2019-Jun-11 08:30N 37°59' E 015°35'917.8
2019-Jun-11 08:00N 37°52' E 015°41'918.6
2019-Jun-11 07:30N 37°51' E 015°53'10519.1
2019-Jun-11 02:00N 37°42' E 018°06'14818.5 030 / 91013.527.0 24.0 22.0
2019-Jun-10 18:00N 37°30' E 021°12'109 6.4 320 / 171012.610.8 25.518.322.1
2019-Jun-10 01:00N 36°24' E 023°00'28 1.4 010 / 261014.527.0 25.0 22.0
2019-Jun-09 04:57N 36°20' E 023°34'8120.4
2019-Jun-09 01:00N 36°24' E 021°54'29218.9 320 / 91018.610.8 22.0 21.0
2019-Jun-08 09:33N 37°47' E 016°02'118.6
2019-Jun-08 09:30N 37°47' E 016°01'918.5
2019-Jun-08 09:00N 37°49' E 015°50'918.6
2019-Jun-08 08:30N 37°53' E 015°39'917.2
2019-Jun-08 08:00N 38°00' E 015°34'918.2
2019-Jun-08 07:30N 38°09' E 015°35'714.5
2019-Jun-08 07:00N 38°16' E 015°40'816.7
2019-Jun-08 06:30N 38°24' E 015°38'1020.3
2019-Jun-08 06:00N 38°33' E 015°32'1020.7
2019-Jun-08 05:30N 38°42' E 015°26'1020.5
2019-Jun-08 05:00N 38°51' E 015°21'5320.1
2019-Jun-08 02:22N 39°30' E 014°34'719.7
2019-Jun-08 02:00N 39°35' E 014°27'1119.8
2019-Jun-08 01:26N 39°43' E 014°17'819.8
2019-Jun-08 01:00N 39°48' E 014°09'7528.0
2019-Jun-08 01:00N 39°48' E 014°00'715.4 130 / 101021.610.8 22.0 21.0
2019-Jun-08 00:30N 39°55' E 013°60'1019.9
2019-Jun-08 00:00N 40°03' E 013°51'2119.9
2019-Jun-07 22:58N 40°17' E 013°32'919.7
2019-Jun-07 22:30N 40°24' E 013°23'1019.1
2019-Jun-07 22:00N 40°31' E 013°15'1019.4
2019-Jun-07 21:30N 40°38' E 013°06'1019.5
2019-Jun-07 20:59N 40°45' E 012°57'9318.7
2019-Jun-07 16:00N 42°00' E 011°42'52 3.1 150 / 231017.6 22.715.421.5
2019-Jun-06 23:00N 41°18' E 012°24'4318.8 120 / 91020.610.8 21.0 21.0
2019-Jun-06 20:43N 40°59' E 013°15'417.9
2019-Jun-06 20:30N 40°57' E 013°19'917.8
2019-Jun-06 20:00N 40°53' E 013°30'917.7
2019-Jun-06 19:30N 40°48' E 013°39'917.7
2019-Jun-06 19:00N 40°41' E 013°47'5340.6
2019-Jun-06 19:00N 40°36' E 013°48'713.7 070 / 41019.610.8 21.918.021.8
2019-Jun-06 18:30N 40°37' E 013°57'816.7
2019-Jun-06 18:00N 40°41' E 014°07'917.3
2019-Jun-06 17:30N 40°47' E 014°15'4 7.7
2019-Jun-06 16:59N 40°51' E 014°16'0 0.0
2019-Jun-06 16:29N 40°50' E 014°16'0 0.0
2019-Jun-06 15:59N 40°50' E 014°16'0 0.0
2019-Jun-06 15:29N 40°50' E 014°16'0 0.0
2019-Jun-06 14:59N 40°50' E 014°16'0 0.0
2019-Jun-06 14:26N 40°50' E 014°16'0 0.0
2019-Jun-06 13:53N 40°50' E 014°16'0 0.0
2019-Jun-06 13:23N 40°50' E 014°16'0 0.0
2019-Jun-06 12:53N 40°50' E 014°16'0 0.0
2019-Jun-06 12:23N 40°50' E 014°16'0 0.0
2019-Jun-06 11:53N 40°50' E 014°16'0 0.0
2019-Jun-06 11:29N 40°50' E 014°16'0 0.0
2019-Jun-06 10:53N 40°50' E 014°16'0 0.0
2019-Jun-06 10:29N 40°50' E 014°16'0 0.0
2019-Jun-06 09:56N 40°50' E 014°16'0 0.0
2019-Jun-06 09:29N 40°50' E 014°16'0 0.0
2019-Jun-06 08:59N 40°50' E 014°16'0 0.0
2019-Jun-06 08:29N 40°50' E 014°16'0 0.0
2019-Jun-06 07:56N 40°50' E 014°16'0 0.0
2019-Jun-06 07:29N 40°50' E 014°16'0 0.0
2019-Jun-06 06:59N 40°50' E 014°16'0 0.0
2019-Jun-06 06:29N 40°50' E 014°16'0 0.0
2019-Jun-06 05:59N 40°50' E 014°16'0 0.9
2019-Jun-06 05:30N 40°50' E 014°16'611.7
2019-Jun-06 05:00N 40°44' E 014°15'918.5
2019-Jun-06 04:30N 40°36' E 014°10'1017.0
2019-Jun-06 03:55N 40°26' E 014°11'718.0
2019-Jun-06 03:30N 40°20' E 014°16'917.8
2019-Jun-06 03:00N 40°12' E 014°21'1117.9
2019-Jun-06 02:23N 40°02' E 014°29'1717.8
2019-Jun-06 01:26N 39°48' E 014°40'1226.7
2019-Jun-06 01:00N 39°36' E 014°42'   030 / 71016.627.0 21.0 21.0
Track history (hours):
 
Tides and Currents Weather Stations Pressure Air Temp Water Temp Dewpoint Dewpoint Depression Visibility Wind Speed Wind Dir Waves Ship Positions

Jewel Of The Seas

Operator: Royal Caribbean Cruises Ltd

Last reported at 2019-Jun-16 00:30 UTC. Time now 2019-Jun-16 00:56 UTC.
Position N 42°26' E 010°30'.

Length 290 m; draft 8.6 m.

Type: Passenger vessel. MMSI: 311583000.

Date/timePositionNaut miles runAvg speedWind from/ knotsBaromVisibWave heightAir tempDewpointWater temp
2019-Jun-16 00:30N 42°26' E 010°30'1020.2
2019-Jun-16 00:00N 42°33' E 010°20'2020.1
2019-Jun-15 23:01N 42°44' E 009°58'020.6
2019-Jun-15 23:00N 42°44' E 009°58'91344.7
2019-Jun-15 23:00N 42°36' E 010°00'1735.5 010 / 131018.610.8 21.0 20.0
2019-Jun-15 22:30N 42°50' E 009°46'1019.2
2019-Jun-15 22:00N 42°57' E 009°37'1019.6
2019-Jun-15 21:30N 43°06' E 009°32'918.5
2019-Jun-15 21:00N 43°10' E 009°21'1019.1
2019-Jun-15 20:30N 43°13' E 009°08'1019.4
2019-Jun-15 20:00N 43°17' E 008°56'1019.4
2019-Jun-15 19:30N 43°20' E 008°44'1019.8
2019-Jun-15 19:00N 43°23' E 008°30'1020.0
2019-Jun-15 18:30N 43°25' E 008°17'1019.4
2019-Jun-15 18:00N 43°28' E 008°04'919.0
2019-Jun-15 17:30N 43°31' E 007°52'1019.5
2019-Jun-15 17:01N 43°34' E 007°39'1019.7
2019-Jun-15 16:30N 43°38' E 007°26'612.6
2019-Jun-15 16:00N 43°41' E 007°19'1 1.4
2019-Jun-15 15:29N 43°41' E 007°19'0 0.1
2019-Jun-15 14:59N 43°41' E 007°19'0 0.1
2019-Jun-15 14:29N 43°41' E 007°19'0 0.1
2019-Jun-15 13:59N 43°41' E 007°19'0 0.1
2019-Jun-15 13:29N 43°41' E 007°19'0 0.0
2019-Jun-15 12:59N 43°41' E 007°19'0 0.1
2019-Jun-15 12:29N 43°41' E 007°19'0 0.0
2019-Jun-15 11:59N 43°41' E 007°19'0 0.0
2019-Jun-15 11:29N 43°41' E 007°19'0 0.0
2019-Jun-15 10:59N 43°41' E 007°19'0 0.0
2019-Jun-15 10:29N 43°41' E 007°19'0 0.0
2019-Jun-15 09:59N 43°41' E 007°19'0 0.1
2019-Jun-15 09:26N 43°41' E 007°19'0 0.0
2019-Jun-15 08:59N 43°41' E 007°19'0 0.0
2019-Jun-15 08:29N 43°41' E 007°19'0 0.0
2019-Jun-15 07:59N 43°41' E 007°19'0 0.0
2019-Jun-15 07:26N 43°41' E 007°19'0 0.0
2019-Jun-15 06:59N 43°41' E 007°19'0 0.0
2019-Jun-15 06:29N 43°41' E 007°19'0 0.0
2019-Jun-15 05:59N 43°41' E 007°19'0 0.0
2019-Jun-15 05:29N 43°41' E 007°19'0 0.0
2019-Jun-15 04:56N 43°41' E 007°19'0 0.2
2019-Jun-15 04:30N 43°41' E 007°19'3 6.1
2019-Jun-15 04:00N 43°38' E 007°18'714.9
2019-Jun-15 03:30N 43°31' E 007°16'713.6
2019-Jun-15 03:00N 43°24' E 007°15'612.5
2019-Jun-15 02:31N 43°18' E 007°13'611.9
2019-Jun-15 02:00N 43°13' E 007°09'611.9
2019-Jun-15 01:31N 43°07' E 007°05'611.6
2019-Jun-15 01:01N 43°02' E 007°01'611.5
2019-Jun-15 00:27N 42°57' E 006°57'715.2
2019-Jun-15 00:00N 42°54' E 006°48'240.9 220 / 151017.6 5.4 19.0 20.0
2019-Jun-14 23:57N 42°56' E 006°49'7411.0
2019-Jun-14 17:12N 43°12' E 005°10'312.6
2019-Jun-14 17:00N 43°12' E 005°06'394.9 160 / 411007.5 21.516.319.0
2019-Jun-14 16:57N 43°15' E 005°09'510.9
2019-Jun-14 16:29N 43°19' E 005°14'5 0.4
2019-Jun-14 05:36N 43°21' E 005°19'0 1.6
2019-Jun-14 05:29N 43°21' E 005°19'4 7.4
2019-Jun-14 05:00N 43°19' E 005°15'612.8
2019-Jun-14 04:30N 43°13' E 005°11'5813.9
2019-Jun-14 00:19N 42°34' E 006°09'515.8
2019-Jun-14 00:00N 42°31' E 006°15'7864.2
2019-Jun-14 00:00N 42°30' E 006°06'1428.7 070 / 191015.627.0 20.0 20.0
2019-Jun-13 23:30N 42°28' E 006°25'815.8
2019-Jun-13 23:00N 42°25' E 006°35'816.0
2019-Jun-13 22:30N 42°21' E 006°44'816.1
2019-Jun-13 22:00N 42°18' E 006°54'816.0
2019-Jun-13 21:30N 42°15' E 007°04'816.1
2019-Jun-13 21:00N 42°11' E 007°14'816.1
2019-Jun-13 20:31N 42°08' E 007°24'816.2
2019-Jun-13 20:00N 42°04' E 007°34'816.1
2019-Jun-13 19:30N 42°01' E 007°43'815.8
2019-Jun-13 19:00N 41°58' E 007°53'815.8
2019-Jun-13 18:30N 41°54' E 008°03'815.8
2019-Jun-13 18:00N 41°51' E 008°12'815.8
2019-Jun-13 17:31N 41°48' E 008°22'714.8
2019-Jun-13 17:00N 41°48' E 008°32'816.0
2019-Jun-13 16:31N 41°52' E 008°41'4 0.4
2019-Jun-13 05:06N 41°55' E 008°45'2 6.8
2019-Jun-13 04:49N 41°53' E 008°45'411.8
2019-Jun-13 04:30N 41°51' E 008°41'612.6
2019-Jun-13 04:00N 41°46' E 008°36'713.0
2019-Jun-13 03:30N 41°39' E 008°37'713.4
2019-Jun-13 03:00N 41°33' E 008°40'713.2
2019-Jun-13 02:30N 41°27' E 008°44'713.1
2019-Jun-13 02:00N 41°21' E 008°49'713.4
2019-Jun-13 01:30N 41°17' E 008°56'713.3
2019-Jun-13 01:00N 41°17' E 009°05'9585.4
2019-Jun-13 01:00N 41°12' E 008°54'9714.7 300 / 121015.627.0 19.0 21.0
2019-Jun-12 18:23N 41°51' E 010°53'513.7
2019-Jun-12 18:00N 41°53' E 010°60'1513.8
2019-Jun-12 16:53N 41°59' E 011°19'1314.3
2019-Jun-12 16:00N 42°00' E 011°36'14 0.9 320 / 201014.610.8 23.117.222.5
2019-Jun-12 01:14N 41°51' E 011°50'2017.7
2019-Jun-12 00:05N 41°33' E 012°04'10106.4
2019-Jun-12 00:00N 41°24' E 012°06'411.1 070 / 161012.510.8 22.0 22.0
2019-Jun-11 23:36N 41°27' E 012°11'717.7
2019-Jun-11 23:12N 41°21' E 012°16'317.9
2019-Jun-11 23:00N 41°18' E 012°19'1217.9
2019-Jun-11 22:20N 41°09' E 012°29'717.9
2019-Jun-11 21:56N 41°03' E 012°35'1717.9
2019-Jun-11 20:59N 40°50' E 012°49'918.1
2019-Jun-11 20:30N 40°44' E 012°57'918.1
2019-Jun-11 20:00N 40°37' E 013°05'918.2
2019-Jun-11 19:30N 40°31' E 013°14'918.1
2019-Jun-11 19:00N 40°25' E 013°22'917.9
2019-Jun-11 18:31N 40°18' E 013°30'918.1
2019-Jun-11 18:01N 40°12' E 013°39'2127.3
2019-Jun-11 18:00N 40°12' E 013°36'1122.6 140 / 181012.6 5.4 25.021.624.4
2019-Jun-11 17:31N 40°05' E 013°47'918.2
2019-Jun-11 17:01N 39°59' E 013°55'918.3
2019-Jun-11 16:31N 39°52' E 014°04'1218.1
2019-Jun-11 15:52N 39°44' E 014°14'718.3
2019-Jun-11 15:30N 39°39' E 014°20'5518.1
2019-Jun-11 12:29N 38°60' E 015°10'918.2
2019-Jun-11 12:01N 38°54' E 015°17'917.8
2019-Jun-11 11:31N 38°46' E 015°24'918.0
2019-Jun-11 11:01N 38°38' E 015°29'918.0
2019-Jun-11 10:30N 38°30' E 015°35'918.3
2019-Jun-11 10:01N 38°22' E 015°40'814.6
2019-Jun-11 09:28N 38°15' E 015°39'715.3
2019-Jun-11 09:01N 38°08' E 015°36'918.1
2019-Jun-11 08:30N 37°59' E 015°35'917.8
2019-Jun-11 08:00N 37°52' E 015°41'918.6
2019-Jun-11 07:30N 37°51' E 015°53'10519.1
2019-Jun-11 02:00N 37°42' E 018°06'14818.5 030 / 91013.527.0 24.0 22.0
2019-Jun-10 18:00N 37°30' E 021°12'109 6.4 320 / 171012.610.8 25.518.322.1
2019-Jun-10 01:00N 36°24' E 023°00'28 1.4 010 / 261014.527.0 25.0 22.0
2019-Jun-09 04:57N 36°20' E 023°34'8120.4
2019-Jun-09 01:00N 36°24' E 021°54'29218.9 320 / 91018.610.8 22.0 21.0
2019-Jun-08 09:33N 37°47' E 016°02'118.6
2019-Jun-08 09:30N 37°47' E 016°01'918.5
2019-Jun-08 09:00N 37°49' E 015°50'918.6
2019-Jun-08 08:30N 37°53' E 015°39'917.2
2019-Jun-08 08:00N 38°00' E 015°34'918.2
2019-Jun-08 07:30N 38°09' E 015°35'714.5
2019-Jun-08 07:00N 38°16' E 015°40'816.7
2019-Jun-08 06:30N 38°24' E 015°38'1020.3
2019-Jun-08 06:00N 38°33' E 015°32'1020.7
2019-Jun-08 05:30N 38°42' E 015°26'1020.5
2019-Jun-08 05:00N 38°51' E 015°21'5320.1
2019-Jun-08 02:22N 39°30' E 014°34'719.7
2019-Jun-08 02:00N 39°35' E 014°27'1119.8
2019-Jun-08 01:26N 39°43' E 014°17'819.8
2019-Jun-08 01:00N 39°48' E 014°09'7528.0
2019-Jun-08 01:00N 39°48' E 014°00'715.4 130 / 101021.610.8 22.0 21.0
2019-Jun-08 00:30N 39°55' E 013°60'1019.9
2019-Jun-08 00:00N 40°03' E 013°51'2119.9
2019-Jun-07 22:58N 40°17' E 013°32'919.7
2019-Jun-07 22:30N 40°24' E 013°23'1019.1
2019-Jun-07 22:00N 40°31' E 013°15'1019.4
2019-Jun-07 21:30N 40°38' E 013°06'1019.5
2019-Jun-07 20:59N 40°45' E 012°57'9318.7
2019-Jun-07 16:00N 42°00' E 011°42'52 3.1 150 / 231017.6 22.715.421.5
2019-Jun-06 23:00N 41°18' E 012°24'4318.8 120 / 91020.610.8 21.0 21.0
2019-Jun-06 20:43N 40°59' E 013°15'417.9
2019-Jun-06 20:30N 40°57' E 013°19'917.8
2019-Jun-06 20:00N 40°53' E 013°30'917.7
2019-Jun-06 19:30N 40°48' E 013°39'917.7
2019-Jun-06 19:00N 40°41' E 013°47'5340.6
2019-Jun-06 19:00N 40°36' E 013°48'713.7 070 / 41019.610.8 21.918.021.8
2019-Jun-06 18:30N 40°37' E 013°57'816.7
2019-Jun-06 18:00N 40°41' E 014°07'917.3
2019-Jun-06 17:30N 40°47' E 014°15'4 7.7
2019-Jun-06 16:59N 40°51' E 014°16'0 0.0
2019-Jun-06 16:29N 40°50' E 014°16'0 0.0
2019-Jun-06 15:59N 40°50' E 014°16'0 0.0
2019-Jun-06 15:29N 40°50' E 014°16'0 0.0
2019-Jun-06 14:59N 40°50' E 014°16'0 0.0
2019-Jun-06 14:26N 40°50' E 014°16'0 0.0
2019-Jun-06 13:53N 40°50' E 014°16'0 0.0
2019-Jun-06 13:23N 40°50' E 014°16'0 0.0
2019-Jun-06 12:53N 40°50' E 014°16'0 0.0
2019-Jun-06 12:23N 40°50' E 014°16'0 0.0
2019-Jun-06 11:53N 40°50' E 014°16'0 0.0
2019-Jun-06 11:29N 40°50' E 014°16'0 0.0
2019-Jun-06 10:53N 40°50' E 014°16'0 0.0
2019-Jun-06 10:29N 40°50' E 014°16'0 0.0
2019-Jun-06 09:56N 40°50' E 014°16'0 0.0
2019-Jun-06 09:29N 40°50' E 014°16'0 0.0
2019-Jun-06 08:59N 40°50' E 014°16'0 0.0
2019-Jun-06 08:29N 40°50' E 014°16'0 0.0
2019-Jun-06 07:56N 40°50' E 014°16'0 0.0
2019-Jun-06 07:29N 40°50' E 014°16'0 0.0
2019-Jun-06 06:59N 40°50' E 014°16'0 0.0
2019-Jun-06 06:29N 40°50' E 014°16'0 0.0
2019-Jun-06 05:59N 40°50' E 014°16'0 0.9
2019-Jun-06 05:30N 40°50' E 014°16'611.7
2019-Jun-06 05:00N 40°44' E 014°15'918.5
2019-Jun-06 04:30N 40°36' E 014°10'1017.0
2019-Jun-06 03:55N 40°26' E 014°11'718.0
2019-Jun-06 03:30N 40°20' E 014°16'917.8
2019-Jun-06 03:00N 40°12' E 014°21'1117.9
2019-Jun-06 02:23N 40°02' E 014°29'1717.8
2019-Jun-06 01:26N 39°48' E 014°40'1226.7
2019-Jun-06 01:00N 39°36' E 014°42'   030 / 71016.627.0 21.0 21.0

Dump ship's entire track history